Time;durP1;ratioP1;P1;durP2;ratioP2;P2;SDS_P1;SDS_P2;PMS_P1;PMS_P2;Temp;Humidity;BMP_temperature;BMP_pressure;BME280_temperature;BME280_humidity;BME280_pressure;Samples;Min_cycle;Max_cycle;Signal;HPM_P1;HPM_P2
2022/11/25 00:00:51;;;;;;;5.38;3.25;;;;;;;-4.86;72.22;99760.66;4936827;29;20078;-72
2022/11/25 00:03:17;;;;;;;4.88;3.53;;;;;;;-4.82;71.84;99767.25;4936564;29;20524;-71
2022/11/25 00:05:42;;;;;;;6.35;3.60;;;;;;;-4.88;72.41;99753.97;4953587;29;20047;-72
2022/11/25 00:08:08;;;;;;;6.20;4.13;;;;;;;-4.86;72.31;99758.09;4936015;29;20039;-71
2022/11/25 00:10:34;;;;;;;7.57;3.90;;;;;;;-4.82;72.20;99754.31;4953534;29;20066;-71
2022/11/25 00:13:00;;;;;;;6.15;3.65;;;;;;;-4.78;72.90;99754.03;4920444;29;20094;-71
2022/11/25 00:15:26;;;;;;;5.68;3.72;;;;;;;-4.73;72.52;99760.47;4936657;29;20055;-70
2022/11/25 00:17:52;;;;;;;6.03;3.78;;;;;;;-4.67;72.71;99766.91;4953499;29;20613;-71
2022/11/25 00:20:21;;;;;;;7.43;3.70;;;;;;;-4.77;72.58;99746.13;4936588;29;20097;-71
2022/11/25 00:22:47;;;;;;;7.72;4.03;;;;;;;-4.72;72.76;99758.69;4905122;29;20417;-71
2022/11/25 00:25:12;;;;;;;6.72;4.28;;;;;;;-4.73;73.26;99759.66;4953373;29;20059;-71
2022/11/25 00:27:38;;;;;;;7.45;3.95;;;;;;;-4.82;72.76;99750.91;4936017;29;20050;-71
2022/11/25 00:30:05;;;;;;;7.38;4.32;;;;;;;-4.74;73.14;99755.41;4920324;29;20059;-71
2022/11/25 00:32:31;;;;;;;8.20;4.03;;;;;;;-4.78;73.11;99754.03;4935984;29;20436;-70
2022/11/25 00:34:58;;;;;;;6.10;3.58;;;;;;;-4.74;73.61;99763.97;4920917;29;20055;-72
2022/11/25 00:37:23;;;;;;;9.20;5.10;;;;;;;-4.67;72.79;99757.34;4953103;29;20381;-72
2022/11/25 00:39:49;;;;;;;8.45;4.28;;;;;;;-4.59;72.95;99762.72;4953225;29;20512;-70
2022/11/25 00:44:59;;;;;;;7.82;4.78;;;;;;;-4.58;72.91;99764.34;4938983;29;20066;-71
2022/11/25 00:47:25;;;;;;;8.95;5.20;;;;;;;-4.54;74.00;99756.31;4953259;29;20040;-71
2022/11/25 00:49:53;;;;;;;8.98;4.82;;;;;;;-4.50;73.12;99768.88;4935980;29;20164;-71
2022/11/25 00:52:22;;;;;;;7.15;4.05;;;;;;;-4.63;73.25;99766.50;4935975;29;20054;-71
2022/11/25 00:54:50;;;;;;;8.98;5.45;;;;;;;-4.55;73.67;99770.19;4936306;29;20065;-72
2022/11/25 00:57:20;;;;;;;10.70;4.85;;;;;;;-4.48;73.17;99777.28;4935911;29;20535;-71
2022/11/25 00:59:47;;;;;;;9.68;5.10;;;;;;;-4.40;73.31;99777.47;4920141;29;20047;-71
2022/11/25 01:02:14;;;;;;;8.18;4.50;;;;;;;-4.36;73.12;99783.19;4935772;29;20066;-70
2022/11/25 01:04:39;;;;;;;11.18;5.28;;;;;;;-4.46;73.22;99782.34;4920349;29;20063;-70
2022/11/25 01:07:05;;;;;;;9.23;5.30;;;;;;;-4.44;73.61;99778.69;4920006;29;20570;-70
2022/11/25 01:09:36;;;;;;;8.20;4.47;;;;;;;-4.43;73.25;99782.09;4935866;29;20051;-71
2022/11/25 01:12:03;;;;;;;8.20;4.87;;;;;;;-4.59;73.85;99767.88;4904957;29;20047;-71
2022/11/25 01:14:30;;;;;;;7.05;4.47;;;;;;;-4.52;73.67;99775.13;4953317;29;20043;-72
2022/11/25 01:16:56;;;;;;;11.40;5.13;;;;;;;-4.50;73.50;99781.81;4935594;29;20407;-71
2022/11/25 01:19:21;;;;;;;11.70;5.40;;;;;;;-4.40;73.83;99776.66;4953265;28;20046;-71
2022/11/25 01:21:47;;;;;;;9.27;5.35;;;;;;;-4.55;73.96;99776.19;4939334;29;20055;-71
2022/11/25 01:24:14;;;;;;;15.40;6.25;;;;;;;-4.46;74.81;99779.78;4923578;29;20493;-71
2022/11/25 01:26:40;;;;;;;9.45;5.55;;;;;;;-4.37;73.66;99778.97;4923381;29;20135;-71
2022/11/25 01:29:10;;;;;;;9.50;5.05;;;;;;;-4.28;73.60;99780.75;4939154;29;20039;-71
2022/11/25 01:31:36;;;;;;;9.88;5.45;;;;;;;-4.38;73.32;99778.16;4939183;29;20062;-70
2022/11/25 01:34:13;;;;;;;9.27;5.65;;;;;;;-4.43;73.96;99777.72;4939375;29;20043;-72
2022/11/25 01:36:39;;;;;;;10.60;5.50;;;;;;;-4.40;74.20;99784.41;4938789;29;20047;-71
2022/11/25 01:39:05;;;;;;;13.70;6.22;;;;;;;-4.44;73.63;99777.84;4956168;29;20058;-71
2022/11/25 01:41:32;;;;;;;10.93;6.28;;;;;;;-4.38;73.88;99793.69;4938876;29;20050;-69
2022/11/25 01:44:28;;;;;;;12.15;5.93;;;;;;;-4.39;74.11;99786.03;4956467;29;20043;-73
2022/11/25 01:47:01;;;;;;;12.50;5.65;;;;;;;-4.46;73.68;99785.75;4921556;29;20051;-71
2022/11/25 01:50:02;;;;;;;15.27;6.82;;;;;;;-4.38;74.21;99791.09;4938789;29;20054;-71
2022/11/25 01:52:38;;;;;;;13.73;6.15;;;;;;;-4.32;74.00;99801.84;4908301;29;20054;-71
2022/11/25 01:55:18;;;;;;;15.48;6.22;;;;;;;-4.40;73.89;99798.16;4923283;29;20063;-73
2022/11/25 01:57:47;;;;;;;10.77;5.78;;;;;;;-4.36;73.29;99802.13;4922879;29;20137;-70
2022/11/25 02:00:14;;;;;;;12.40;6.65;;;;;;;-4.25;74.10;99808.97;4923073;29;20047;-71
2022/11/25 02:02:48;;;;;;;15.55;6.15;;;;;;;-4.18;73.58;99806.66;4939637;29;20042;-72
2022/11/25 02:05:17;;;;;;;12.52;6.07;;;;;;;-4.19;73.04;99802.44;4922600;29;20055;-70
2022/11/25 02:07:45;;;;;;;16.67;7.32;;;;;;;-4.20;73.47;99813.78;4938286;29;20086;-71
2022/11/25 02:10:16;;;;;;;16.70;7.50;;;;;;;-4.17;73.10;99811.72;4922640;29;20055;-71
2022/11/25 02:12:43;;;;;;;15.65;6.88;;;;;;;-4.21;72.91;99818.09;4922890;29;20057;-71
2022/11/25 02:15:10;;;;;;;15.27;8.02;;;;;;;-4.16;73.60;99809.94;4922625;29;20051;-71
2022/11/25 02:17:37;;;;;;;15.00;6.85;;;;;;;-4.18;72.72;99825.59;4938284;29;20078;-70
2022/11/25 02:20:09;;;;;;;12.02;6.47;;;;;;;-4.20;72.77;99824.13;4938330;29;20055;-72
2022/11/25 02:22:57;;;;;;;12.63;5.93;;;;;;;-4.17;72.83;99822.09;4922540;29;20067;-71
2022/11/25 02:25:26;;;;;;;16.30;7.78;;;;;;;-4.14;72.98;99821.81;4900599;29;20506;-72
2022/11/25 02:27:55;;;;;;;11.15;6.82;;;;;;;-4.20;72.49;99819.75;4916008;29;20043;-70
2022/11/25 02:30:21;;;;;;;13.90;6.67;;;;;;;-4.14;72.78;99819.22;4915441;29;20055;-70
2022/11/25 02:32:48;;;;;;;15.20;7.18;;;;;;;-4.11;72.41;99826.72;4884641;29;20044;-71
2022/11/25 02:35:31;;;;;;;11.75;5.80;;;;;;;-4.27;73.35;99812.63;4900230;29;20453;-70
2022/11/25 02:38:10;;;;;;;11.65;5.78;;;;;;;-4.34;72.84;99815.75;4899979;29;20050;-70
2022/11/25 02:40:59;;;;;;;9.80;5.70;;;;;;;-4.43;72.89;99811.38;4900014;29;20052;-71
2022/11/25 02:43:26;;;;;;;15.50;6.05;;;;;;;-4.36;72.48;99816.84;4856188;29;20139;-71
2022/11/25 02:45:59;;;;;;;14.65;6.88;;;;;;;-4.30;72.76;99818.06;4884383;29;20439;-70
2022/11/25 02:48:26;;;;;;;13.05;6.90;;;;;;;-4.29;72.59;99814.53;4899934;29;20055;-72
2022/11/25 02:50:52;;;;;;;17.40;6.40;;;;;;;-4.62;72.43;99777.66;4899771;29;20047;-70
2022/11/25 02:53:18;;;;;;;13.52;6.82;;;;;;;-4.38;73.10;99813.56;4899962;29;20323;-70
2022/11/25 02:55:44;;;;;;;14.68;7.47;;;;;;;-4.38;73.82;99811.81;4915702;29;20475;-70
2022/11/25 02:58:10;;;;;;;9.38;5.57;;;;;;;-4.36;73.25;99816.84;4915486;29;20064;-72
2022/11/25 03:00:38;;;;;;;10.80;6.40;;;;;;;-4.42;72.98;99819.94;4899652;29;20149;-71
2022/11/25 03:03:04;;;;;;;15.18;6.47;;;;;;;-4.54;73.01;99821.00;4915523;29;20127;-71
2022/11/25 03:05:31;;;;;;;12.73;6.28;;;;;;;-4.59;72.81;99829.13;4884312;29;20139;-72
2022/11/25 03:07:58;;;;;;;15.98;8.02;;;;;;;-4.57;73.09;99830.63;4915260;29;20071;-70
2022/11/25 03:10:25;;;;;;;14.43;7.38;;;;;;;-4.55;73.01;99827.94;4916499;29;20135;-72
2022/11/25 03:12:52;;;;;;;11.10;6.35;;;;;;;-4.53;73.41;99845.91;4915285;29;20040;-71
2022/11/25 03:15:18;;;;;;;15.60;8.57;;;;;;;-4.49;73.70;99832.59;4899564;29;20052;-71
2022/11/25 03:17:44;;;;;;;15.77;9.25;;;;;;;-4.35;72.76;99837.41;4915068;29;20063;-71
2022/11/25 03:20:11;;;;;;;16.05;8.57;;;;;;;-4.34;73.33;99843.41;4868540;29;20046;-72
2022/11/25 03:22:38;;;;;;;16.65;8.25;;;;;;;-4.41;73.05;99843.13;4899452;29;20521;-72
2022/11/25 03:25:05;;;;;;;15.85;8.07;;;;;;;-4.44;72.98;99847.72;4899527;29;20430;-72
2022/11/25 03:27:32;;;;;;;14.63;7.38;;;;;;;-4.50;73.13;99850.81;4899246;29;20055;-70
2022/11/25 03:29:59;;;;;;;11.25;6.00;;;;;;;-4.67;73.64;99860.00;4883835;29;20529;-71
2022/11/25 03:32:26;;;;;;;17.85;7.78;;;;;;;-4.61;73.78;99857.72;4899307;29;20048;-73
2022/11/25 03:34:51;;;;;;;14.07;6.40;;;;;;;-4.59;73.37;99860.16;4916457;29;20044;-72
2022/11/25 03:37:18;;;;;;;16.23;7.20;;;;;;;-4.57;73.25;99868.63;4916022;29;20084;-71
2022/11/25 03:39:44;;;;;;;17.30;7.10;;;;;;;-4.60;73.68;99859.34;4898976;29;20589;-71
2022/11/25 03:42:10;;;;;;;15.95;7.15;;;;;;;-4.40;72.61;99868.03;4914044;29;20485;-71
2022/11/25 03:44:36;;;;;;;11.18;6.53;;;;;;;-4.50;73.27;99872.38;4898900;29;20068;-70
2022/11/25 03:47:01;;;;;;;16.60;7.22;;;;;;;-4.44;73.00;99865.81;4898626;29;20044;-70
2022/11/25 03:49:28;;;;;;;13.82;6.45;;;;;;;-4.40;72.94;99869.81;4914811;29;20039;-71
2022/11/25 03:51:54;;;;;;;15.63;7.22;;;;;;;-4.37;72.68;99878.13;4915625;29;20063;-73
2022/11/25 03:54:20;;;;;;;15.27;7.82;;;;;;;-4.38;73.08;99879.09;4914693;29;20051;-71
2022/11/25 03:57:18;;;;;;;20.45;8.13;;;;;;;-4.30;72.54;99891.38;4883433;29;20568;-71
2022/11/25 03:59:44;;;;;;;9.55;5.65;;;;;;;-4.37;72.68;99893.66;4898727;29;20136;-72
2022/11/25 04:02:09;;;;;;;11.48;6.15;;;;;;;-4.42;71.83;99903.56;4898582;29;20188;-71
2022/11/25 04:04:36;;;;;;;16.42;6.70;;;;;;;-4.40;72.41;99899.09;4898900;29;20048;-71
2022/11/25 04:07:02;;;;;;;18.05;7.18;;;;;;;-4.45;72.18;99898.66;4898413;29;20540;-71
2022/11/25 04:09:28;;;;;;;14.43;6.88;;;;;;;-4.40;72.27;99901.69;4914113;29;20048;-71
2022/11/25 04:14:49;;;;;;;16.88;7.00;;;;;;;-4.36;71.65;99895.28;4914330;29;20188;-71
2022/11/25 04:17:14;;;;;;;11.68;5.78;;;;;;;-4.51;72.64;99888.81;4914479;29;20122;-71
2022/11/25 04:19:40;;;;;;;15.77;6.10;;;;;;;-4.38;72.40;99904.97;4898753;29;20055;-72
2022/11/25 04:22:06;;;;;;;10.70;5.95;;;;;;;-4.36;72.43;99908.22;4914934;29;20544;-72
2022/11/25 04:24:36;;;;;;;10.77;6.47;;;;;;;-4.37;71.61;99904.00;4914961;29;20036;-71
2022/11/25 04:27:03;;;;;;;17.02;7.45;;;;;;;-4.40;71.84;99911.22;4915497;29;20378;-72
2022/11/25 04:29:29;;;;;;;15.32;7.32;;;;;;;-4.37;72.01;99901.44;4869838;29;20036;-70
2022/11/25 04:31:58;;;;;;;10.98;5.55;;;;;;;-4.30;72.01;99899.13;4915521;29;20052;-71
2022/11/25 04:34:24;;;;;;;11.50;6.35;;;;;;;-4.30;71.60;99906.91;4915750;29;20052;-71
2022/11/25 04:36:51;;;;;;;12.57;6.97;;;;;;;-4.29;71.57;99908.56;4915523;29;20060;-71
2022/11/25 04:39:17;;;;;;;11.32;6.53;;;;;;;-4.35;71.83;99904.72;4900775;29;20108;-75
2022/11/25 04:41:43;;;;;;;12.00;5.88;;;;;;;-4.30;71.90;99906.09;4915316;29;20171;-71
2022/11/25 04:44:09;;;;;;;9.63;5.63;;;;;;;-4.28;72.05;99912.78;4914481;29;20486;-71
2022/11/25 04:46:39;;;;;;;11.82;6.55;;;;;;;-4.33;71.25;99912.34;4883264;29;20040;-70
2022/11/25 04:49:05;;;;;;;13.63;6.20;;;;;;;-4.31;71.85;99912.22;4898431;29;20044;-70
2022/11/25 04:51:31;;;;;;;14.38;6.35;;;;;;;-4.27;71.08;99917.00;4898105;29;20056;-71
2022/11/25 04:54:00;;;;;;;13.80;6.80;;;;;;;-4.42;71.40;99921.69;4899335;29;20142;-72
2022/11/25 04:56:26;;;;;;;12.73;6.63;;;;;;;-4.32;71.70;99924.34;4917250;29;20143;-71
2022/11/25 05:01:44;;;;;;;14.02;6.53;;;;;;;-4.17;71.42;99928.22;4889338;29;20522;-71
2022/11/25 05:04:30;;;;;;;13.43;5.85;;;;;;;-4.14;71.01;99933.16;4904117;29;20052;-72
2022/11/25 05:06:56;;;;;;;10.75;6.00;;;;;;;-4.15;71.83;99930.66;4918852;29;20063;-71
2022/11/25 05:09:23;;;;;;;13.10;5.97;;;;;;;-4.17;71.16;99933.41;4917295;29;20070;-71
2022/11/25 05:12:00;;;;;;;14.55;6.85;;;;;;;-4.07;70.92;99930.03;4903002;29;20048;-71
2022/11/25 05:14:26;;;;;;;15.05;7.22;;;;;;;-4.16;71.11;99937.63;4901728;29;20055;-71
2022/11/25 05:16:52;;;;;;;12.48;6.10;;;;;;;-4.15;70.83;99930.66;4917243;29;20048;-71
2022/11/25 05:19:18;;;;;;;11.55;5.00;;;;;;;-4.38;70.48;99935.22;4917053;29;20051;-71
2022/11/25 05:21:44;;;;;;;15.60;5.90;;;;;;;-4.43;71.44;99934.78;4916854;29;20560;-70
2022/11/25 05:24:11;;;;;;;12.57;6.38;;;;;;;-4.51;71.27;99927.63;4885692;29;20043;-70
2022/11/25 05:26:37;;;;;;;10.90;5.15;;;;;;;-4.41;71.12;99935.44;4885682;29;20059;-71
2022/11/25 05:29:04;;;;;;;14.40;6.10;;;;;;;-4.43;70.76;99924.41;4917177;29;20077;-69
2022/11/25 05:31:32;;;;;;;11.10;4.40;;;;;;;-4.51;70.86;99937.16;4916860;29;20135;-69
2022/11/25 05:34:01;;;;;;;10.98;5.50;;;;;;;-4.47;71.47;99941.13;4885768;29;20180;-70
2022/11/25 05:36:28;;;;;;;12.65;6.15;;;;;;;-4.43;71.14;99939.94;4901502;29;20075;-70
2022/11/25 05:38:55;;;;;;;10.38;5.38;;;;;;;-4.36;71.20;99944.47;4916909;29;20051;-71
2022/11/25 05:41:31;;;;;;;12.60;6.10;;;;;;;-4.38;70.86;99942.97;4916929;29;20056;-71
2022/11/25 05:43:58;;;;;;;11.27;5.82;;;;;;;-4.39;71.39;99936.16;4885873;29;20055;-73
2022/11/25 05:46:24;;;;;;;12.00;6.13;;;;;;;-4.30;71.45;99930.19;4885358;29;20563;-71
2022/11/25 05:48:54;;;;;;;12.65;6.05;;;;;;;-4.28;71.38;99941.25;4916899;29;20055;-71
2022/11/25 05:51:20;;;;;;;15.35;6.78;;;;;;;-4.23;71.28;99949.47;4917926;29;20059;-71
2022/11/25 05:53:46;;;;;;;12.10;6.10;;;;;;;-4.19;70.99;99937.88;4900946;29;20048;-70
2022/11/25 05:56:12;;;;;;;12.13;5.25;;;;;;;-4.33;70.82;99945.97;4900914;29;20391;-72
2022/11/25 05:59:00;;;;;;;11.55;6.40;;;;;;;-4.46;70.88;99947.97;4916868;29;20461;-72
2022/11/25 06:01:38;;;;;;;12.23;6.13;;;;;;;-4.39;70.82;99949.91;4916252;29;20474;-70
2022/11/25 06:04:04;;;;;;;15.02;6.45;;;;;;;-4.37;70.88;99950.59;4900763;29;20182;-73
2022/11/25 06:06:31;;;;;;;10.75;5.95;;;;;;;-4.32;70.73;99955.41;4915386;29;20052;-72
2022/11/25 06:08:56;;;;;;;12.60;6.28;;;;;;;-4.29;70.44;99955.16;4900801;29;20048;-68
2022/11/25 06:11:24;;;;;;;12.23;5.38;;;;;;;-4.20;70.29;99953.56;4916431;29;20115;-74
2022/11/25 06:13:51;;;;;;;12.13;5.82;;;;;;;-4.21;69.89;99952.72;4867496;29;20100;-66
2022/11/25 06:16:19;;;;;;;13.05;5.78;;;;;;;-4.31;70.22;99951.84;4862561;29;20494;-69
2022/11/25 06:18:49;;;;;;;13.32;6.22;;;;;;;-4.42;71.35;99952.75;4912478;29;20091;-70
2022/11/25 06:21:15;;;;;;;12.80;6.07;;;;;;;-4.32;70.90;99959.75;4899816;29;20055;-68
2022/11/25 06:23:44;;;;;;;11.23;5.65;;;;;;;-4.30;70.84;99961.25;4917675;29;20043;-68
2022/11/25 06:26:13;;;;;;;12.57;6.72;;;;;;;-4.22;71.13;99963.22;4935756;29;20484;-68
2022/11/25 06:28:39;;;;;;;13.63;6.78;;;;;;;-4.20;70.79;99966.50;4934027;29;20110;-67
2022/11/25 06:31:10;;;;;;;16.70;6.85;;;;;;;-4.08;70.32;99967.25;4950769;29;20937;-67
2022/11/25 06:33:41;;;;;;;12.07;5.13;;;;;;;-3.95;69.41;99970.44;4921349;29;20534;-70
2022/11/25 06:36:15;;;;;;;9.10;4.32;;;;;;;-3.99;69.87;99969.88;4934956;29;20058;-72
2022/11/25 06:38:46;;;;;;;10.82;6.45;;;;;;;-3.91;70.22;99977.81;4934932;29;20459;-71
2022/11/25 06:41:13;;;;;;;11.68;6.25;;;;;;;-3.98;70.25;99984.44;4951011;29;20090;-72
2022/11/25 06:43:39;;;;;;;13.90;6.72;;;;;;;-3.83;70.53;99978.94;4937119;29;20405;-69
2022/11/25 06:46:06;;;;;;;10.57;5.18;;;;;;;-3.85;69.44;99981.66;4918276;29;20420;-70
2022/11/25 06:48:32;;;;;;;13.18;5.93;;;;;;;-3.90;69.74;99981.22;4919401;29;20055;-70
2022/11/25 06:51:00;;;;;;;12.02;5.93;;;;;;;-4.07;68.82;99979.22;4952308;29;20402;-71
2022/11/25 06:53:27;;;;;;;15.75;6.50;;;;;;;-4.14;69.42;99981.53;4918627;29;20043;-69
2022/11/25 06:56:17;;;;;;;14.57;5.45;;;;;;;-4.14;70.06;99987.53;4951708;29;20047;-70
2022/11/25 06:58:44;;;;;;;11.07;5.38;;;;;;;-4.16;69.84;99997.16;4932935;29;20039;-71
2022/11/25 07:01:16;;;;;;;12.70;5.95;;;;;;;-4.20;70.14;99993.22;4915124;29;20599;-74
2022/11/25 07:03:46;;;;;;;12.10;5.80;;;;;;;-4.08;69.12;99995.72;4918362;29;20051;-72
2022/11/25 07:06:16;;;;;;;12.23;5.35;;;;;;;-4.11;69.45;100001.97;4901401;29;20523;-73
2022/11/25 07:08:43;;;;;;;10.60;5.32;;;;;;;-4.25;70.75;100002.31;4917971;29;20048;-72
2022/11/25 07:11:23;;;;;;;14.32;5.57;;;;;;;-4.20;70.36;100010.53;4932873;29;20058;-72
2022/11/25 07:13:57;;;;;;;11.30;4.93;;;;;;;-4.22;69.88;99994.28;4903383;29;20420;-70
2022/11/25 07:16:26;;;;;;;10.93;5.32;;;;;;;-4.23;69.84;100008.19;4933489;28;20054;-73
2022/11/25 07:18:53;;;;;;;13.45;6.25;;;;;;;-4.34;70.19;100004.69;4900919;29;20040;-71
2022/11/25 07:21:25;;;;;;;10.73;4.75;;;;;;;-4.30;70.39;100010.44;4902907;29;20038;-72
2022/11/25 07:23:53;;;;;;;10.23;4.60;;;;;;;-4.29;70.71;100011.25;4920461;29;20043;-71
2022/11/25 07:26:26;;;;;;;13.13;6.07;;;;;;;-4.15;70.35;100019.53;4902224;29;20046;-70
2022/11/25 07:28:54;;;;;;;13.98;6.38;;;;;;;-4.25;69.93;100010.88;4934669;29;20098;-72
2022/11/25 07:31:25;;;;;;;13.70;5.78;;;;;;;-4.25;69.57;100023.00;4901379;29;20471;-73
2022/11/25 07:33:53;;;;;;;11.45;5.40;;;;;;;-4.29;69.50;100024.19;4912737;29;20413;-73
2022/11/25 07:36:19;;;;;;;13.88;5.68;;;;;;;-4.33;70.09;100015.88;4912852;29;20046;-71
2022/11/25 07:38:51;;;;;;;13.05;5.22;;;;;;;-4.26;70.11;100029.16;4919211;29;20053;-71
2022/11/25 07:41:23;;;;;;;13.40;5.75;;;;;;;-4.18;70.12;100021.53;4901630;29;20610;-71
2022/11/25 07:43:51;;;;;;;11.43;5.78;;;;;;;-4.23;69.88;100029.72;4934119;29;20047;-72
2022/11/25 07:46:20;;;;;;;11.45;5.55;;;;;;;-4.20;69.15;100026.88;4917764;29;20310;-67
2022/11/25 07:48:46;;;;;;;9.60;4.65;;;;;;;-4.34;70.55;100025.41;4931176;29;20055;-62
2022/11/25 07:51:15;;;;;;;8.60;4.57;;;;;;;-4.38;70.03;100024.03;4932018;29;20105;-64
2022/11/25 07:53:41;;;;;;;12.50;5.35;;;;;;;-4.35;69.74;100031.53;4881265;29;20048;-64
2022/11/25 07:56:07;;;;;;;10.55;4.88;;;;;;;-4.44;70.24;100032.28;4913083;29;20564;-67
2022/11/25 07:58:35;;;;;;;9.07;5.28;;;;;;;-4.39;69.99;100027.53;4906454;29;20072;-67
2022/11/25 08:01:04;;;;;;;10.40;4.93;;;;;;;-4.40;70.16;100040.63;4916387;29;20090;-63
2022/11/25 08:03:33;;;;;;;8.50;4.95;;;;;;;-4.29;70.48;100039.72;4915900;29;20047;-66
2022/11/25 08:06:01;;;;;;;13.27;5.00;;;;;;;-4.34;70.59;100042.72;4932578;29;20047;-69
2022/11/25 08:08:29;;;;;;;11.45;4.88;;;;;;;-4.32;70.17;100038.22;4915138;29;20043;-68
2022/11/25 08:10:55;;;;;;;9.70;4.57;;;;;;;-4.38;70.03;100042.13;4900092;29;20150;-64
2022/11/25 08:13:22;;;;;;;15.57;6.82;;;;;;;-4.37;70.40;100040.38;4932884;29;20639;-64
2022/11/25 08:15:48;;;;;;;11.07;5.07;;;;;;;-4.19;70.65;100038.84;4915919;29;20051;-65
2022/11/25 08:18:15;;;;;;;12.65;6.05;;;;;;;-4.09;70.19;100041.50;4931205;29;20416;-67
2022/11/25 08:20:44;;;;;;;8.75;5.38;;;;;;;-4.09;68.64;100025.94;4931600;29;20043;-67
2022/11/25 08:23:10;;;;;;;10.52;5.10;;;;;;;-4.07;69.58;100051.75;4894638;29;20067;-67
2022/11/25 08:25:40;;;;;;;7.82;5.10;;;;;;;-4.00;69.08;100052.84;4892453;29;20048;-67
2022/11/25 08:28:06;;;;;;;8.85;4.28;;;;;;;-4.11;69.58;100051.19;4888767;29;20056;-67
2022/11/25 08:30:32;;;;;;;10.02;5.25;;;;;;;-4.05;69.61;100055.03;4879476;29;20170;-66
2022/11/25 08:32:58;;;;;;;10.95;5.55;;;;;;;-4.11;69.33;100048.59;4910937;29;20055;-65
2022/11/25 08:35:24;;;;;;;9.77;4.93;;;;;;;-4.16;69.83;100040.38;4908202;29;20573;-67
2022/11/25 08:37:50;;;;;;;9.85;5.32;;;;;;;-4.06;70.03;100050.78;4909120;29;20580;-67
2022/11/25 08:40:22;;;;;;;9.70;5.40;;;;;;;-3.99;69.81;100062.28;4911611;29;20040;-67
2022/11/25 08:42:48;;;;;;;13.27;5.70;;;;;;;-3.94;69.16;100055.78;4894367;29;20472;-67
2022/11/25 08:45:13;;;;;;;13.00;5.72;;;;;;;-3.91;69.33;100054.72;4894518;29;20519;-70
2022/11/25 08:47:40;;;;;;;10.93;6.00;;;;;;;-4.14;70.37;100051.44;4910816;29;20063;-63
2022/11/25 08:50:08;;;;;;;12.70;6.20;;;;;;;-3.97;70.61;100052.59;4908347;29;20040;-63
2022/11/25 08:52:34;;;;;;;13.55;6.15;;;;;;;-3.86;69.88;100057.72;4909870;29;20054;-64
2022/11/25 08:55:00;;;;;;;14.73;7.10;;;;;;;-3.76;69.55;100055.19;4876992;29;20481;-64
2022/11/25 08:57:26;;;;;;;13.23;6.85;;;;;;;-3.73;69.46;100060.13;4910419;29;20430;-64
2022/11/25 08:59:52;;;;;;;12.40;6.22;;;;;;;-3.83;69.14;100056.63;4893263;29;20052;-67
2022/11/25 09:02:18;;;;;;;13.85;6.55;;;;;;;-3.85;69.82;100061.13;4894304;29;20493;-63
2022/11/25 09:04:44;;;;;;;16.13;6.25;;;;;;;-3.87;69.60;100061.25;4908296;29;20056;-63
2022/11/25 09:07:11;;;;;;;13.40;6.32;;;;;;;-3.94;70.07;100062.69;4893215;29;20036;-66
2022/11/25 09:09:37;;;;;;;11.90;5.82;;;;;;;-3.96;70.10;100065.44;4909805;29;20054;-66
2022/11/25 09:12:03;;;;;;;9.05;5.63;;;;;;;-3.94;70.10;100065.28;4892130;29;20040;-63
2022/11/25 09:14:28;;;;;;;14.73;6.18;;;;;;;-3.95;70.75;100067.06;4909093;29;20048;-62
2022/11/25 09:16:55;;;;;;;11.57;6.18;;;;;;;-3.84;70.07;100071.38;4911958;29;20044;-62
2022/11/25 09:19:22;;;;;;;10.70;5.95;;;;;;;-3.85;69.81;100061.13;4909101;29;20073;-63
2022/11/25 09:21:48;;;;;;;14.40;6.30;;;;;;;-3.79;70.47;100060.63;4892513;29;20141;-62
2022/11/25 09:24:14;;;;;;;11.77;5.60;;;;;;;-3.89;70.70;100078.69;4909044;29;20116;-63
2022/11/25 09:26:41;;;;;;;7.78;5.30;;;;;;;-3.92;70.50;100071.19;4911840;29;20047;-63
2022/11/25 09:29:07;;;;;;;9.68;5.60;;;;;;;-3.88;70.22;100065.63;4875320;29;20403;-62
2022/11/25 09:31:33;;;;;;;13.43;6.43;;;;;;;-3.80;70.58;100066.75;4901576;29;20052;-62
2022/11/25 09:33:59;;;;;;;11.63;6.45;;;;;;;-3.74;70.80;100068.81;4894804;29;20646;-64
2022/11/25 09:36:26;;;;;;;12.90;5.70;;;;;;;-3.80;70.77;100079.69;4909781;29;20115;-64
2022/11/25 09:38:52;;;;;;;12.10;5.25;;;;;;;-3.74;69.83;100077.41;4895022;29;20135;-64
2022/11/25 09:47:21;;;;;;;8.90;5.18;;;;;;;-3.95;70.08;100066.25;4914109;29;20127;-63
2022/11/25 09:50:04;;;;;;;7.47;4.60;;;;;;;-3.94;70.89;100068.72;4915118;29;20063;-65
2022/11/25 09:52:53;;;;;;;9.15;5.20;;;;;;;-3.98;70.97;100075.09;4899290;29;20059;-66
2022/11/25 09:55:22;;;;;;;6.32;4.28;;;;;;;-4.12;70.95;100052.94;4899911;29;20063;-64
2022/11/25 09:58:00;;;;;;;9.50;6.00;;;;;;;-3.97;71.23;100063.81;4898396;29;20131;-68
2022/11/25 10:00:47;;;;;;;7.75;3.92;;;;;;;-3.97;71.01;100079.34;4915783;29;20063;-64
2022/11/25 10:03:42;;;;;;;7.40;5.25;;;;;;;-3.97;70.53;100071.56;4916180;29;20055;-66
2022/11/25 10:06:15;;;;;;;10.60;5.05;;;;;;;-3.91;70.22;100068.47;4915734;29;20068;-65
2022/11/25 10:08:44;;;;;;;6.90;4.45;;;;;;;-4.04;70.65;100067.03;4899395;29;20052;-65
2022/11/25 10:11:20;;;;;;;10.95;5.60;;;;;;;-3.91;70.73;100068.47;4880486;29;20143;-64
2022/11/25 10:14:33;;;;;;;8.23;4.88;;;;;;;-3.78;70.59;100080.41;4894726;29;20072;-65
2022/11/25 10:17:08;;;;;;;8.32;5.38;;;;;;;-3.80;70.47;100077.91;4896534;29;20048;-64
2022/11/25 10:19:59;;;;;;;10.75;6.18;;;;;;;-3.81;71.34;100076.28;4915353;29;20387;-64
2022/11/25 10:22:36;;;;;;;10.55;6.28;;;;;;;-3.63;70.63;100079.09;4898650;29;20055;-65
2022/11/25 10:25:14;;;;;;;13.38;6.25;;;;;;;-3.58;70.25;100084.72;4916498;29;20048;-65
2022/11/25 10:27:52;;;;;;;6.88;4.88;;;;;;;-3.64;70.24;100079.25;4915707;29;20047;-71
2022/11/25 10:30:22;;;;;;;8.60;4.78;;;;;;;-3.72;70.81;100088.47;4891732;29;20060;-66
2022/11/25 10:32:54;;;;;;;12.30;4.95;;;;;;;-3.76;70.08;100089.69;4892830;29;20422;-65
2022/11/25 10:35:33;;;;;;;12.30;6.03;;;;;;;-3.71;70.24;100091.88;4894246;29;20040;-63
2022/11/25 10:38:01;;;;;;;10.23;5.63;;;;;;;-3.77;70.04;100097.56;4892348;29;20040;-64
2022/11/25 10:40:27;;;;;;;10.23;5.97;;;;;;;-3.66;70.87;100094.91;4895034;29;20052;-63
2022/11/25 10:42:52;;;;;;;9.70;5.35;;;;;;;-3.84;70.09;100058.41;4896568;29;20052;-65
2022/11/25 10:45:24;;;;;;;12.10;6.38;;;;;;;-3.53;69.99;100094.69;4895738;29;20070;-73
2022/11/25 10:48:06;;;;;;;9.98;6.03;;;;;;;-3.48;69.76;100100.31;4897661;29;20051;-63
2022/11/25 10:50:35;;;;;;;13.48;6.78;;;;;;;-3.45;70.26;100097.47;4896469;29;20413;-63
2022/11/25 10:53:22;;;;;;;10.52;5.40;;;;;;;-3.50;69.47;100094.44;4900680;29;20037;-63
2022/11/25 10:56:16;;;;;;;12.73;6.38;;;;;;;-3.36;69.61;100093.28;4908696;29;20044;-63
2022/11/25 10:58:43;;;;;;;9.80;4.88;;;;;;;-3.38;69.61;100092.56;4892858;29;20406;-63
2022/11/25 11:01:35;;;;;;;10.05;5.32;;;;;;;-3.36;69.15;100099.28;4878063;29;20040;-63
2022/11/25 11:04:04;;;;;;;9.18;5.18;;;;;;;-3.44;68.91;100094.75;4893691;29;20100;-65
2022/11/25 11:06:41;;;;;;;11.57;5.65;;;;;;;-3.60;69.70;100099.59;4896598;29;20037;-64
2022/11/25 11:09:30;;;;;;;9.93;5.22;;;;;;;-3.66;69.54;100089.72;4894183;29;20057;-63
2022/11/25 11:11:57;;;;;;;8.88;4.72;;;;;;;-3.69;69.90;100102.94;4891579;29;20060;-64
2022/11/25 11:14:22;;;;;;;8.15;4.65;;;;;;;-3.63;70.17;100109.38;4893210;29;20064;-62
2022/11/25 11:16:55;;;;;;;8.02;4.90;;;;;;;-3.64;69.62;100115.53;4908540;29;20052;-63
2022/11/25 11:19:27;;;;;;;10.38;5.22;;;;;;;-3.60;69.99;100115.13;4898263;29;20088;-62
2022/11/25 11:21:54;;;;;;;8.75;5.03;;;;;;;-3.64;70.16;100110.34;4928037;29;20102;-63
2022/11/25 11:24:30;;;;;;;10.98;5.00;;;;;;;-3.63;69.85;100132.72;4934955;29;20039;-62
2022/11/25 11:27:06;;;;;;;6.95;4.82;;;;;;;-3.63;70.04;100123.16;4904425;29;20050;-63
2022/11/25 11:29:33;;;;;;;9.18;5.32;;;;;;;-3.57;69.91;100127.81;4935000;29;20047;-63
2022/11/25 11:32:04;;;;;;;9.30;5.38;;;;;;;-3.56;69.82;100128.66;4952032;29;20043;-63
2022/11/25 11:34:48;;;;;;;10.25;5.43;;;;;;;-3.58;70.02;100125.38;4952312;29;20047;-67
2022/11/25 11:37:22;;;;;;;9.00;4.95;;;;;;;-3.59;69.70;100123.72;4952622;29;20059;-62
2022/11/25 11:40:20;;;;;;;6.78;4.07;;;;;;;-3.72;69.84;100131.69;4918496;29;20043;-64
2022/11/25 11:43:05;;;;;;;8.35;4.65;;;;;;;-3.84;69.95;100135.31;4951801;29;20074;-63
2022/11/25 11:45:40;;;;;;;5.60;3.35;;;;;;;-3.86;69.94;100135.41;4934959;29;20560;-62
2022/11/25 11:48:29;;;;;;;5.90;4.35;;;;;;;-3.91;70.84;100125.47;4951342;29;20043;-63
2022/11/25 11:51:13;;;;;;;9.88;5.15;;;;;;;-3.92;71.12;100130.75;4951660;29;20047;-63